Airfield :
LOGIN :

Register | Disclaimer

   EN    FR    IT 

 










Legend :    VFR   Marginal VFR   IFR   Intensive IFR   Very Intensive IFR
Visi :
Ceiling :
>= 8 km
>= 3000ft
5 to 8 km
1000 to 3000 ft
1500m to 5 km
500 to 1000 ft
800 to 1500m
200 to 500 ft
< 800m
< 200 ft
Symbols :   Thunderstorms  Fog  Heavy snow  Heavy precipitations  Wind > 20 kt
SIGMETs :     Misc.  Thunderstorms  Icing  Turbulence  Mountain Waves  Volcanic Ashes






- Airport Elevation : 74 ft
- IATA code : EIN


EHEH - Eindhoven

CURRENT METAR :
  • 291255Z AUTO VRB06KT 9999 FEW063 SCT069 BKN075 26/13 Q1013 BLU NOSIG

EXPIRED METARs :
  • 291225Z AUTO VRB05KT 9999 BKN062 BKN073 27/13 Q1013 BLU NOSIG
  • 291155Z AUTO 15008KT 110V210 9999 SCT063 OVC068 27/12 Q1013 BLU NOSIG
  • 291125Z AUTO 17007KT 080V230 9999 BKN064 OVC070 26/12 Q1013 BLU NOSIG
  • 291055Z AUTO 15007KT 100V230 9999 BKN064 BKN070 BKN075 27/12 Q1013 BLU NOSIG
  • 291025Z AUTO 14005KT 090V210 9999 SCT073 27/13 Q1014 BLU NOSIG

TAF TAF EHEH
Valid from the 29 at 12:00 until the 30 at 18:00 UTC


291102Z 2912/3018 18006KT CAVOK
BECMG 2917/2919 VRB02KT
BECMG 3008/3011 32008KT
TEMPO 3012/3018 VRB10G20KT 4000 SHRA TSRA FEW012 SCT015 SCT040CB
PROB30
TEMPO 3014/3018 VRB15G30KT 2000 TSRAGR SCT008 BKN030CB



MET'MAP, your aeronautical weather chart ! - Copyright ORBIFLY December 2007 - Disclaimer

ORBIFLY MET'MAP TEAM :

Programming & Development : Alexandra Zaïnal
Original concept : Baudouin d'Aumeries
Technical & hardware support : Manuel Goepfert
Assistance : Marc-Olivier Méhu




SOURCES & CREDITS :

   NOAA